sensor_id;sensor_type;location;lat;lon;timestamp;P1;durP1;ratioP1;P2;durP2;ratioP2
16963;SDS011;8598;50.508;10.436;2023-05-19T00:00:27;7.37;;;2.60;;
16963;SDS011;8598;50.508;10.436;2023-05-19T00:02:54;7.47;;;2.33;;
16963;SDS011;8598;50.508;10.436;2023-05-19T00:05:21;5.43;;;2.33;;
16963;SDS011;8598;50.508;10.436;2023-05-19T00:07:48;5.93;;;2.27;;
16963;SDS011;8598;50.508;10.436;2023-05-19T00:10:18;3.80;;;2.20;;
16963;SDS011;8598;50.508;10.436;2023-05-19T00:12:45;2.63;;;2.43;;
16963;SDS011;8598;50.508;10.436;2023-05-19T00:15:13;6.43;;;2.20;;
16963;SDS011;8598;50.508;10.436;2023-05-19T00:17:40;5.47;;;2.60;;
16963;SDS011;8598;50.508;10.436;2023-05-19T00:20:07;5.70;;;2.80;;
16963;SDS011;8598;50.508;10.436;2023-05-19T00:22:36;3.87;;;2.30;;
16963;SDS011;8598;50.508;10.436;2023-05-19T00:25:02;2.43;;;2.23;;
16963;SDS011;8598;50.508;10.436;2023-05-19T00:27:31;5.47;;;2.53;;
16963;SDS011;8598;50.508;10.436;2023-05-19T00:29:58;5.50;;;2.40;;
16963;SDS011;8598;50.508;10.436;2023-05-19T00:32:24;6.17;;;2.43;;
16963;SDS011;8598;50.508;10.436;2023-05-19T00:34:51;2.97;;;2.23;;
16963;SDS011;8598;50.508;10.436;2023-05-19T00:37:17;6.03;;;2.40;;
16963;SDS011;8598;50.508;10.436;2023-05-19T00:39:44;9.33;;;2.87;;
16963;SDS011;8598;50.508;10.436;2023-05-19T00:42:11;2.13;;;1.97;;
16963;SDS011;8598;50.508;10.436;2023-05-19T00:44:39;3.50;;;2.70;;
16963;SDS011;8598;50.508;10.436;2023-05-19T00:47:06;4.07;;;2.57;;
16963;SDS011;8598;50.508;10.436;2023-05-19T00:49:33;4.10;;;2.40;;
16963;SDS011;8598;50.508;10.436;2023-05-19T00:52:00;5.23;;;2.60;;
16963;SDS011;8598;50.508;10.436;2023-05-19T00:54:27;5.17;;;2.80;;
16963;SDS011;8598;50.508;10.436;2023-05-19T00:56:54;3.70;;;2.70;;
16963;SDS011;8598;50.508;10.436;2023-05-19T00:59:22;6.70;;;2.80;;
16963;SDS011;8598;50.508;10.436;2023-05-19T01:01:50;4.70;;;3.00;;
16963;SDS011;8598;50.508;10.436;2023-05-19T01:04:17;6.13;;;2.70;;
16963;SDS011;8598;50.508;10.436;2023-05-19T01:06:45;4.63;;;3.30;;
16963;SDS011;8598;50.508;10.436;2023-05-19T01:09:13;5.37;;;3.70;;
16963;SDS011;8598;50.508;10.436;2023-05-19T01:11:40;5.97;;;2.83;;
16963;SDS011;8598;50.508;10.436;2023-05-19T01:14:07;4.57;;;2.80;;
16963;SDS011;8598;50.508;10.436;2023-05-19T01:16:35;6.63;;;3.30;;
16963;SDS011;8598;50.508;10.436;2023-05-19T01:19:09;4.73;;;2.73;;
16963;SDS011;8598;50.508;10.436;2023-05-19T01:22:02;4.17;;;3.10;;
16963;SDS011;8598;50.508;10.436;2023-05-19T01:24:43;8.83;;;3.20;;
16963;SDS011;8598;50.508;10.436;2023-05-19T01:27:32;4.07;;;3.33;;
16963;SDS011;8598;50.508;10.436;2023-05-19T01:30:29;9.07;;;3.23;;
16963;SDS011;8598;50.508;10.436;2023-05-19T01:33:02;6.10;;;3.63;;
16963;SDS011;8598;50.508;10.436;2023-05-19T01:35:32;5.90;;;3.00;;
16963;SDS011;8598;50.508;10.436;2023-05-19T01:38:01;8.57;;;3.90;;
16963;SDS011;8598;50.508;10.436;2023-05-19T01:40:29;4.27;;;2.83;;
16963;SDS011;8598;50.508;10.436;2023-05-19T01:42:58;6.13;;;3.10;;
16963;SDS011;8598;50.508;10.436;2023-05-19T01:45:26;6.10;;;2.77;;
16963;SDS011;8598;50.508;10.436;2023-05-19T01:47:56;4.57;;;3.10;;
16963;SDS011;8598;50.508;10.436;2023-05-19T01:50:25;6.60;;;2.93;;
16963;SDS011;8598;50.508;10.436;2023-05-19T01:52:52;7.63;;;3.27;;
16963;SDS011;8598;50.508;10.436;2023-05-19T01:55:19;5.13;;;2.90;;
16963;SDS011;8598;50.508;10.436;2023-05-19T01:57:49;14.07;;;3.53;;
16963;SDS011;8598;50.508;10.436;2023-05-19T02:00:28;6.67;;;3.40;;
16963;SDS011;8598;50.508;10.436;2023-05-19T02:03:13;4.50;;;3.43;;
16963;SDS011;8598;50.508;10.436;2023-05-19T02:05:50;3.00;;;2.70;;
16963;SDS011;8598;50.508;10.436;2023-05-19T02:08:23;3.97;;;3.10;;
16963;SDS011;8598;50.508;10.436;2023-05-19T02:10:56;4.83;;;2.83;;
16963;SDS011;8598;50.508;10.436;2023-05-19T02:13:27;4.60;;;3.03;;
16963;SDS011;8598;50.508;10.436;2023-05-19T02:16:01;5.37;;;2.90;;
16963;SDS011;8598;50.508;10.436;2023-05-19T02:18:31;8.00;;;2.97;;
16963;SDS011;8598;50.508;10.436;2023-05-19T02:20:59;4.50;;;3.13;;
16963;SDS011;8598;50.508;10.436;2023-05-19T02:23:25;8.70;;;3.27;;
16963;SDS011;8598;50.508;10.436;2023-05-19T02:25:52;9.10;;;4.30;;
16963;SDS011;8598;50.508;10.436;2023-05-19T02:28:19;7.37;;;2.77;;
16963;SDS011;8598;50.508;10.436;2023-05-19T02:30:45;6.40;;;3.13;;
16963;SDS011;8598;50.508;10.436;2023-05-19T02:33:12;6.53;;;2.90;;
16963;SDS011;8598;50.508;10.436;2023-05-19T02:35:40;3.73;;;2.93;;
16963;SDS011;8598;50.508;10.436;2023-05-19T02:38:06;6.63;;;3.03;;
16963;SDS011;8598;50.508;10.436;2023-05-19T02:40:33;4.93;;;3.07;;
16963;SDS011;8598;50.508;10.436;2023-05-19T02:43:00;3.60;;;3.10;;
16963;SDS011;8598;50.508;10.436;2023-05-19T02:45:27;6.80;;;3.13;;
16963;SDS011;8598;50.508;10.436;2023-05-19T02:47:53;4.40;;;3.30;;
16963;SDS011;8598;50.508;10.436;2023-05-19T02:50:20;4.97;;;3.03;;
16963;SDS011;8598;50.508;10.436;2023-05-19T02:52:48;3.27;;;2.93;;
16963;SDS011;8598;50.508;10.436;2023-05-19T02:55:16;6.90;;;3.20;;
16963;SDS011;8598;50.508;10.436;2023-05-19T02:57:43;6.40;;;3.10;;
16963;SDS011;8598;50.508;10.436;2023-05-19T03:00:10;5.67;;;3.40;;
16963;SDS011;8598;50.508;10.436;2023-05-19T03:02:37;6.43;;;3.50;;
16963;SDS011;8598;50.508;10.436;2023-05-19T03:05:05;5.47;;;4.07;;
16963;SDS011;8598;50.508;10.436;2023-05-19T03:07:34;4.07;;;3.30;;
16963;SDS011;8598;50.508;10.436;2023-05-19T03:10:02;6.70;;;3.77;;
16963;SDS011;8598;50.508;10.436;2023-05-19T03:12:30;6.27;;;3.30;;
16963;SDS011;8598;50.508;10.436;2023-05-19T03:14:57;6.10;;;3.40;;
16963;SDS011;8598;50.508;10.436;2023-05-19T03:17:24;5.40;;;3.37;;
16963;SDS011;8598;50.508;10.436;2023-05-19T03:19:51;4.33;;;3.13;;
16963;SDS011;8598;50.508;10.436;2023-05-19T03:22:18;5.83;;;3.57;;
16963;SDS011;8598;50.508;10.436;2023-05-19T03:24:45;5.37;;;3.03;;
16963;SDS011;8598;50.508;10.436;2023-05-19T03:27:16;6.80;;;3.33;;
16963;SDS011;8598;50.508;10.436;2023-05-19T03:29:42;4.67;;;3.30;;
16963;SDS011;8598;50.508;10.436;2023-05-19T03:32:09;5.70;;;3.30;;
16963;SDS011;8598;50.508;10.436;2023-05-19T03:34:36;7.67;;;3.70;;
16963;SDS011;8598;50.508;10.436;2023-05-19T03:37:02;8.40;;;3.93;;
16963;SDS011;8598;50.508;10.436;2023-05-19T03:39:29;4.77;;;3.17;;
16963;SDS011;8598;50.508;10.436;2023-05-19T03:41:56;8.50;;;3.67;;
16963;SDS011;8598;50.508;10.436;2023-05-19T03:44:24;7.57;;;4.00;;
16963;SDS011;8598;50.508;10.436;2023-05-19T03:46:50;7.93;;;3.87;;
16963;SDS011;8598;50.508;10.436;2023-05-19T03:49:17;4.30;;;3.90;;
16963;SDS011;8598;50.508;10.436;2023-05-19T03:51:43;8.50;;;4.70;;
16963;SDS011;8598;50.508;10.436;2023-05-19T03:54:10;6.23;;;3.87;;
16963;SDS011;8598;50.508;10.436;2023-05-19T03:56:37;6.53;;;4.17;;
16963;SDS011;8598;50.508;10.436;2023-05-19T03:59:05;6.77;;;3.80;;
16963;SDS011;8598;50.508;10.436;2023-05-19T04:01:35;4.10;;;3.70;;
16963;SDS011;8598;50.508;10.436;2023-05-19T04:04:02;9.87;;;3.83;;
16963;SDS011;8598;50.508;10.436;2023-05-19T04:06:29;5.23;;;3.50;;
16963;SDS011;8598;50.508;10.436;2023-05-19T04:08:55;6.90;;;4.10;;
16963;SDS011;8598;50.508;10.436;2023-05-19T04:11:22;8.17;;;3.90;;
16963;SDS011;8598;50.508;10.436;2023-05-19T04:13:49;6.83;;;3.40;;
16963;SDS011;8598;50.508;10.436;2023-05-19T04:16:16;3.37;;;3.07;;
16963;SDS011;8598;50.508;10.436;2023-05-19T04:18:44;6.33;;;3.50;;
16963;SDS011;8598;50.508;10.436;2023-05-19T04:21:10;4.50;;;3.33;;
16963;SDS011;8598;50.508;10.436;2023-05-19T04:23:37;4.87;;;3.43;;
16963;SDS011;8598;50.508;10.436;2023-05-19T04:26:04;3.77;;;3.10;;
16963;SDS011;8598;50.508;10.436;2023-05-19T04:28:30;5.20;;;3.37;;
16963;SDS011;8598;50.508;10.436;2023-05-19T04:30:59;4.60;;;3.17;;
16963;SDS011;8598;50.508;10.436;2023-05-19T04:33:27;4.47;;;3.33;;
16963;SDS011;8598;50.508;10.436;2023-05-19T04:35:55;5.73;;;3.03;;
16963;SDS011;8598;50.508;10.436;2023-05-19T04:38:22;8.23;;;3.20;;
16963;SDS011;8598;50.508;10.436;2023-05-19T04:40:48;5.87;;;3.73;;
16963;SDS011;8598;50.508;10.436;2023-05-19T04:43:15;6.07;;;3.10;;
16963;SDS011;8598;50.508;10.436;2023-05-19T04:45:43;3.23;;;2.40;;
16963;SDS011;8598;50.508;10.436;2023-05-19T04:48:11;5.90;;;3.20;;
16963;SDS011;8598;50.508;10.436;2023-05-19T04:50:38;4.73;;;2.60;;
16963;SDS011;8598;50.508;10.436;2023-05-19T04:53:07;4.00;;;2.97;;
16963;SDS011;8598;50.508;10.436;2023-05-19T04:55:35;4.70;;;2.90;;
16963;SDS011;8598;50.508;10.436;2023-05-19T04:58:02;4.83;;;3.03;;
16963;SDS011;8598;50.508;10.436;2023-05-19T05:00:29;8.27;;;3.00;;
16963;SDS011;8598;50.508;10.436;2023-05-19T05:02:55;4.70;;;2.70;;
16963;SDS011;8598;50.508;10.436;2023-05-19T05:05:22;5.60;;;2.60;;
16963;SDS011;8598;50.508;10.436;2023-05-19T05:07:49;7.80;;;3.10;;
16963;SDS011;8598;50.508;10.436;2023-05-19T05:10:19;7.37;;;3.03;;
16963;SDS011;8598;50.508;10.436;2023-05-19T05:12:46;3.40;;;2.50;;
16963;SDS011;8598;50.508;10.436;2023-05-19T05:15:13;2.27;;;2.00;;
16963;SDS011;8598;50.508;10.436;2023-05-19T05:17:40;6.40;;;2.47;;
16963;SDS011;8598;50.508;10.436;2023-05-19T05:20:08;4.67;;;2.40;;
16963;SDS011;8598;50.508;10.436;2023-05-19T05:22:36;4.10;;;3.07;;
16963;SDS011;8598;50.508;10.436;2023-05-19T05:25:04;8.60;;;3.00;;
16963;SDS011;8598;50.508;10.436;2023-05-19T05:27:33;5.07;;;2.50;;
16963;SDS011;8598;50.508;10.436;2023-05-19T05:29:59;5.50;;;2.43;;
16963;SDS011;8598;50.508;10.436;2023-05-19T05:32:26;3.07;;;2.00;;
16963;SDS011;8598;50.508;10.436;2023-05-19T05:34:53;9.20;;;2.70;;
16963;SDS011;8598;50.508;10.436;2023-05-19T05:37:19;8.47;;;2.40;;
16963;SDS011;8598;50.508;10.436;2023-05-19T05:39:46;3.50;;;2.57;;
16963;SDS011;8598;50.508;10.436;2023-05-19T05:42:12;6.60;;;3.17;;
16963;SDS011;8598;50.508;10.436;2023-05-19T05:44:41;3.37;;;3.07;;
16963;SDS011;8598;50.508;10.436;2023-05-19T05:47:08;8.23;;;3.60;;
16963;SDS011;8598;50.508;10.436;2023-05-19T05:49:36;6.90;;;3.37;;
16963;SDS011;8598;50.508;10.436;2023-05-19T05:52:04;7.77;;;3.40;;
16963;SDS011;8598;50.508;10.436;2023-05-19T05:54:33;6.67;;;3.37;;
16963;SDS011;8598;50.508;10.436;2023-05-19T05:57:00;11.67;;;3.23;;
16963;SDS011;8598;50.508;10.436;2023-05-19T05:59:28;6.87;;;3.53;;
16963;SDS011;8598;50.508;10.436;2023-05-19T06:01:56;6.27;;;3.80;;
16963;SDS011;8598;50.508;10.436;2023-05-19T06:04:22;8.17;;;2.90;;
16963;SDS011;8598;50.508;10.436;2023-05-19T06:06:49;6.53;;;2.90;;
16963;SDS011;8598;50.508;10.436;2023-05-19T06:09:17;8.63;;;2.57;;
16963;SDS011;8598;50.508;10.436;2023-05-19T06:11:43;3.93;;;2.60;;
16963;SDS011;8598;50.508;10.436;2023-05-19T06:14:10;4.27;;;2.37;;
16963;SDS011;8598;50.508;10.436;2023-05-19T06:16:37;5.10;;;3.20;;
16963;SDS011;8598;50.508;10.436;2023-05-19T06:19:04;6.07;;;2.30;;
16963;SDS011;8598;50.508;10.436;2023-05-19T06:21:31;6.07;;;2.93;;
16963;SDS011;8598;50.508;10.436;2023-05-19T06:23:58;7.13;;;2.67;;
16963;SDS011;8598;50.508;10.436;2023-05-19T06:26:24;5.97;;;2.70;;
16963;SDS011;8598;50.508;10.436;2023-05-19T06:28:51;10.83;;;2.47;;
16963;SDS011;8598;50.508;10.436;2023-05-19T06:31:18;7.53;;;3.43;;
16963;SDS011;8598;50.508;10.436;2023-05-19T06:33:44;4.17;;;2.40;;
16963;SDS011;8598;50.508;10.436;2023-05-19T06:36:12;5.20;;;2.47;;
16963;SDS011;8598;50.508;10.436;2023-05-19T06:38:39;5.70;;;3.00;;
16963;SDS011;8598;50.508;10.436;2023-05-19T06:41:05;4.83;;;2.70;;
16963;SDS011;8598;50.508;10.436;2023-05-19T06:43:32;6.50;;;3.00;;
16963;SDS011;8598;50.508;10.436;2023-05-19T06:45:58;7.50;;;3.17;;
16963;SDS011;8598;50.508;10.436;2023-05-19T06:48:25;7.80;;;2.90;;
16963;SDS011;8598;50.508;10.436;2023-05-19T06:50:52;7.27;;;3.37;;
16963;SDS011;8598;50.508;10.436;2023-05-19T06:53:20;8.87;;;2.87;;
16963;SDS011;8598;50.508;10.436;2023-05-19T06:55:47;6.07;;;2.93;;
16963;SDS011;8598;50.508;10.436;2023-05-19T06:58:15;5.80;;;2.20;;
16963;SDS011;8598;50.508;10.436;2023-05-19T07:00:41;5.77;;;2.47;;
16963;SDS011;8598;50.508;10.436;2023-05-19T07:03:08;4.40;;;2.50;;
16963;SDS011;8598;50.508;10.436;2023-05-19T07:05:35;6.77;;;3.27;;
16963;SDS011;8598;50.508;10.436;2023-05-19T07:08:01;5.77;;;2.43;;
16963;SDS011;8598;50.508;10.436;2023-05-19T07:10:30;6.80;;;2.50;;
16963;SDS011;8598;50.508;10.436;2023-05-19T07:12:56;5.47;;;3.23;;
16963;SDS011;8598;50.508;10.436;2023-05-19T07:15:23;4.30;;;3.03;;
16963;SDS011;8598;50.508;10.436;2023-05-19T07:17:50;4.73;;;2.47;;
16963;SDS011;8598;50.508;10.436;2023-05-19T07:20:16;7.27;;;2.30;;
16963;SDS011;8598;50.508;10.436;2023-05-19T07:22:43;4.47;;;2.83;;
16963;SDS011;8598;50.508;10.436;2023-05-19T07:25:10;3.33;;;2.60;;
16963;SDS011;8598;50.508;10.436;2023-05-19T07:27:38;4.30;;;2.37;;
16963;SDS011;8598;50.508;10.436;2023-05-19T07:30:05;4.50;;;2.60;;
16963;SDS011;8598;50.508;10.436;2023-05-19T07:32:32;9.10;;;2.73;;
16963;SDS011;8598;50.508;10.436;2023-05-19T07:34:59;4.97;;;2.03;;
16963;SDS011;8598;50.508;10.436;2023-05-19T07:37:25;6.27;;;2.10;;
16963;SDS011;8598;50.508;10.436;2023-05-19T07:39:52;5.47;;;1.80;;
16963;SDS011;8598;50.508;10.436;2023-05-19T07:42:19;6.77;;;2.90;;
16963;SDS011;8598;50.508;10.436;2023-05-19T07:44:47;2.83;;;1.70;;
16963;SDS011;8598;50.508;10.436;2023-05-19T07:47:13;5.10;;;1.83;;
16963;SDS011;8598;50.508;10.436;2023-05-19T07:49:40;6.70;;;1.90;;
16963;SDS011;8598;50.508;10.436;2023-05-19T07:52:06;3.90;;;2.00;;
16963;SDS011;8598;50.508;10.436;2023-05-19T07:54:33;6.73;;;1.80;;
16963;SDS011;8598;50.508;10.436;2023-05-19T07:57:00;5.23;;;1.90;;
16963;SDS011;8598;50.508;10.436;2023-05-19T07:59:26;4.73;;;1.83;;
16963;SDS011;8598;50.508;10.436;2023-05-19T08:01:54;4.33;;;1.73;;
16963;SDS011;8598;50.508;10.436;2023-05-19T08:04:21;2.73;;;1.60;;
16963;SDS011;8598;50.508;10.436;2023-05-19T08:06:48;2.37;;;1.33;;
16963;SDS011;8598;50.508;10.436;2023-05-19T08:09:16;3.73;;;1.60;;
16963;SDS011;8598;50.508;10.436;2023-05-19T08:11:42;6.87;;;1.73;;
16963;SDS011;8598;50.508;10.436;2023-05-19T08:14:10;7.77;;;1.70;;
16963;SDS011;8598;50.508;10.436;2023-05-19T08:16:37;3.93;;;1.60;;
16963;SDS011;8598;50.508;10.436;2023-05-19T08:19:07;3.57;;;1.50;;
16963;SDS011;8598;50.508;10.436;2023-05-19T08:21:33;3.83;;;1.60;;
16963;SDS011;8598;50.508;10.436;2023-05-19T08:24:00;4.77;;;1.60;;
16963;SDS011;8598;50.508;10.436;2023-05-19T08:26:27;7.27;;;1.90;;
16963;SDS011;8598;50.508;10.436;2023-05-19T08:28:54;6.07;;;1.80;;
16963;SDS011;8598;50.508;10.436;2023-05-19T08:31:20;5.40;;;1.80;;
16963;SDS011;8598;50.508;10.436;2023-05-19T08:33:48;4.10;;;1.63;;
16963;SDS011;8598;50.508;10.436;2023-05-19T08:36:16;6.00;;;1.70;;
16963;SDS011;8598;50.508;10.436;2023-05-19T08:38:43;5.27;;;1.47;;
16963;SDS011;8598;50.508;10.436;2023-05-19T08:41:10;1.93;;;1.27;;
16963;SDS011;8598;50.508;10.436;2023-05-19T08:43:37;5.53;;;1.63;;
16963;SDS011;8598;50.508;10.436;2023-05-19T08:46:04;5.73;;;1.90;;
16963;SDS011;8598;50.508;10.436;2023-05-19T08:48:32;4.53;;;1.90;;
16963;SDS011;8598;50.508;10.436;2023-05-19T08:51:02;4.57;;;1.70;;
16963;SDS011;8598;50.508;10.436;2023-05-19T08:53:39;4.63;;;1.47;;
16963;SDS011;8598;50.508;10.436;2023-05-19T08:56:09;3.50;;;1.60;;
16963;SDS011;8598;50.508;10.436;2023-05-19T08:58:38;5.77;;;1.90;;
16963;SDS011;8598;50.508;10.436;2023-05-19T09:01:06;2.80;;;1.47;;
16963;SDS011;8598;50.508;10.436;2023-05-19T09:03:33;3.73;;;1.67;;
16963;SDS011;8598;50.508;10.436;2023-05-19T09:06:03;2.57;;;1.43;;
16963;SDS011;8598;50.508;10.436;2023-05-19T09:08:30;4.53;;;1.53;;
16963;SDS011;8598;50.508;10.436;2023-05-19T09:10:58;3.43;;;1.73;;
16963;SDS011;8598;50.508;10.436;2023-05-19T09:13:25;4.40;;;1.70;;
16963;SDS011;8598;50.508;10.436;2023-05-19T09:15:52;3.20;;;1.67;;
16963;SDS011;8598;50.508;10.436;2023-05-19T09:18:21;4.13;;;1.70;;
16963;SDS011;8598;50.508;10.436;2023-05-19T09:20:49;2.53;;;1.80;;
16963;SDS011;8598;50.508;10.436;2023-05-19T09:23:23;6.10;;;3.07;;
16963;SDS011;8598;50.508;10.436;2023-05-19T09:25:52;2.73;;;1.90;;
16963;SDS011;8598;50.508;10.436;2023-05-19T09:28:24;5.50;;;2.23;;
16963;SDS011;8598;50.508;10.436;2023-05-19T09:31:01;4.67;;;2.33;;
16963;SDS011;8598;50.508;10.436;2023-05-19T09:33:29;4.60;;;2.63;;
16963;SDS011;8598;50.508;10.436;2023-05-19T09:35:57;3.53;;;2.43;;
16963;SDS011;8598;50.508;10.436;2023-05-19T09:38:24;5.23;;;3.67;;
16963;SDS011;8598;50.508;10.436;2023-05-19T09:40:51;4.70;;;2.63;;
16963;SDS011;8598;50.508;10.436;2023-05-19T09:43:21;4.80;;;2.27;;
16963;SDS011;8598;50.508;10.436;2023-05-19T09:45:49;4.70;;;2.23;;
16963;SDS011;8598;50.508;10.436;2023-05-19T09:48:20;4.63;;;2.07;;
16963;SDS011;8598;50.508;10.436;2023-05-19T09:50:46;3.70;;;2.27;;
16963;SDS011;8598;50.508;10.436;2023-05-19T09:53:15;4.80;;;2.00;;
16963;SDS011;8598;50.508;10.436;2023-05-19T09:55:42;2.67;;;2.27;;
16963;SDS011;8598;50.508;10.436;2023-05-19T09:58:09;6.70;;;3.17;;
16963;SDS011;8598;50.508;10.436;2023-05-19T10:00:41;3.93;;;2.90;;
16963;SDS011;8598;50.508;10.436;2023-05-19T10:03:09;3.90;;;2.17;;
16963;SDS011;8598;50.508;10.436;2023-05-19T10:05:36;3.83;;;2.33;;
16963;SDS011;8598;50.508;10.436;2023-05-19T10:08:05;6.60;;;2.67;;
16963;SDS011;8598;50.508;10.436;2023-05-19T10:10:34;5.97;;;2.90;;
16963;SDS011;8598;50.508;10.436;2023-05-19T10:13:01;4.77;;;2.30;;
16963;SDS011;8598;50.508;10.436;2023-05-19T10:15:29;4.40;;;2.50;;
16963;SDS011;8598;50.508;10.436;2023-05-19T10:17:55;3.40;;;2.40;;
16963;SDS011;8598;50.508;10.436;2023-05-19T10:20:24;3.23;;;1.80;;
16963;SDS011;8598;50.508;10.436;2023-05-19T10:22:51;3.77;;;3.00;;
16963;SDS011;8598;50.508;10.436;2023-05-19T10:25:18;8.97;;;2.93;;
16963;SDS011;8598;50.508;10.436;2023-05-19T10:27:46;4.13;;;2.20;;
16963;SDS011;8598;50.508;10.436;2023-05-19T10:30:19;4.70;;;2.73;;
16963;SDS011;8598;50.508;10.436;2023-05-19T10:32:50;2.47;;;2.20;;
16963;SDS011;8598;50.508;10.436;2023-05-19T10:35:32;5.37;;;2.23;;
16963;SDS011;8598;50.508;10.436;2023-05-19T10:38:15;3.80;;;2.30;;
16963;SDS011;8598;50.508;10.436;2023-05-19T10:40:52;7.17;;;2.53;;
16963;SDS011;8598;50.508;10.436;2023-05-19T10:43:29;4.30;;;2.43;;
16963;SDS011;8598;50.508;10.436;2023-05-19T10:46:02;5.53;;;2.63;;
16963;SDS011;8598;50.508;10.436;2023-05-19T10:48:31;3.93;;;2.13;;
16963;SDS011;8598;50.508;10.436;2023-05-19T10:51:01;5.83;;;2.10;;
16963;SDS011;8598;50.508;10.436;2023-05-19T10:53:31;4.60;;;2.10;;
16963;SDS011;8598;50.508;10.436;2023-05-19T10:55:59;4.80;;;2.50;;
16963;SDS011;8598;50.508;10.436;2023-05-19T10:58:37;4.33;;;2.70;;
16963;SDS011;8598;50.508;10.436;2023-05-19T11:01:09;5.33;;;2.13;;
16963;SDS011;8598;50.508;10.436;2023-05-19T11:03:43;4.27;;;2.07;;
16963;SDS011;8598;50.508;10.436;2023-05-19T11:06:23;2.50;;;1.87;;
16963;SDS011;8598;50.508;10.436;2023-05-19T11:08:51;3.63;;;1.97;;
16963;SDS011;8598;50.508;10.436;2023-05-19T11:11:19;5.20;;;2.30;;
16963;SDS011;8598;50.508;10.436;2023-05-19T11:13:46;3.40;;;2.00;;
16963;SDS011;8598;50.508;10.436;2023-05-19T11:16:16;4.33;;;2.77;;
16963;SDS011;8598;50.508;10.436;2023-05-19T11:18:46;6.50;;;3.03;;
16963;SDS011;8598;50.508;10.436;2023-05-19T11:21:14;3.83;;;2.77;;
16963;SDS011;8598;50.508;10.436;2023-05-19T11:23:42;4.83;;;2.37;;
16963;SDS011;8598;50.508;10.436;2023-05-19T11:26:09;6.67;;;2.30;;
16963;SDS011;8598;50.508;10.436;2023-05-19T11:28:35;4.30;;;2.20;;
16963;SDS011;8598;50.508;10.436;2023-05-19T11:31:02;3.40;;;2.20;;
16963;SDS011;8598;50.508;10.436;2023-05-19T11:33:32;5.07;;;2.70;;
16963;SDS011;8598;50.508;10.436;2023-05-19T11:35:59;5.63;;;2.57;;
16963;SDS011;8598;50.508;10.436;2023-05-19T11:38:26;3.73;;;2.43;;
16963;SDS011;8598;50.508;10.436;2023-05-19T11:40:55;2.73;;;2.20;;
16963;SDS011;8598;50.508;10.436;2023-05-19T11:43:22;2.73;;;2.53;;
16963;SDS011;8598;50.508;10.436;2023-05-19T11:45:49;3.43;;;2.37;;
16963;SDS011;8598;50.508;10.436;2023-05-19T11:48:16;6.30;;;2.50;;
16963;SDS011;8598;50.508;10.436;2023-05-19T11:50:46;3.37;;;2.23;;
16963;SDS011;8598;50.508;10.436;2023-05-19T11:53:12;3.93;;;2.33;;
16963;SDS011;8598;50.508;10.436;2023-05-19T11:55:40;5.33;;;2.93;;
16963;SDS011;8598;50.508;10.436;2023-05-19T11:58:10;4.33;;;2.33;;
16963;SDS011;8598;50.508;10.436;2023-05-19T12:00:37;2.10;;;1.90;;
16963;SDS011;8598;50.508;10.436;2023-05-19T12:03:05;3.53;;;3.03;;
16963;SDS011;8598;50.508;10.436;2023-05-19T12:05:32;2.30;;;2.07;;
16963;SDS011;8598;50.508;10.436;2023-05-19T12:08:01;2.70;;;2.30;;
16963;SDS011;8598;50.508;10.436;2023-05-19T12:10:29;3.97;;;2.03;;
16963;SDS011;8598;50.508;10.436;2023-05-19T12:12:57;3.03;;;2.40;;
16963;SDS011;8598;50.508;10.436;2023-05-19T12:15:27;5.80;;;3.10;;
16963;SDS011;8598;50.508;10.436;2023-05-19T12:17:55;4.63;;;2.90;;
16963;SDS011;8598;50.508;10.436;2023-05-19T12:20:23;4.73;;;1.87;;
16963;SDS011;8598;50.508;10.436;2023-05-19T12:22:51;1.97;;;1.77;;
16963;SDS011;8598;50.508;10.436;2023-05-19T12:25:19;2.43;;;2.03;;
16963;SDS011;8598;50.508;10.436;2023-05-19T12:27:46;6.00;;;2.40;;
16963;SDS011;8598;50.508;10.436;2023-05-19T12:30:13;4.57;;;2.60;;
16963;SDS011;8598;50.508;10.436;2023-05-19T12:32:42;2.37;;;1.83;;
16963;SDS011;8598;50.508;10.436;2023-05-19T12:35:10;2.20;;;2.00;;
16963;SDS011;8598;50.508;10.436;2023-05-19T12:37:39;3.87;;;2.47;;
16963;SDS011;8598;50.508;10.436;2023-05-19T12:40:07;9.57;;;2.57;;
16963;SDS011;8598;50.508;10.436;2023-05-19T12:42:34;5.10;;;2.20;;
16963;SDS011;8598;50.508;10.436;2023-05-19T12:45:02;7.67;;;1.83;;
16963;SDS011;8598;50.508;10.436;2023-05-19T12:47:30;3.30;;;1.90;;
16963;SDS011;8598;50.508;10.436;2023-05-19T12:50:03;4.47;;;1.67;;
16963;SDS011;8598;50.508;10.436;2023-05-19T12:52:32;2.07;;;1.60;;
16963;SDS011;8598;50.508;10.436;2023-05-19T12:55:00;2.40;;;2.20;;
16963;SDS011;8598;50.508;10.436;2023-05-19T12:57:28;2.10;;;1.50;;
16963;SDS011;8598;50.508;10.436;2023-05-19T13:00:00;2.30;;;1.47;;
16963;SDS011;8598;50.508;10.436;2023-05-19T13:02:30;3.90;;;1.90;;
16963;SDS011;8598;50.508;10.436;2023-05-19T13:04:59;3.97;;;1.87;;
16963;SDS011;8598;50.508;10.436;2023-05-19T13:07:27;2.47;;;1.17;;
16963;SDS011;8598;50.508;10.436;2023-05-19T13:09:53;2.07;;;1.20;;
16963;SDS011;8598;50.508;10.436;2023-05-19T13:12:20;2.67;;;1.87;;
16963;SDS011;8598;50.508;10.436;2023-05-19T13:14:47;2.80;;;1.80;;
16963;SDS011;8598;50.508;10.436;2023-05-19T13:17:14;2.00;;;1.57;;
16963;SDS011;8598;50.508;10.436;2023-05-19T13:19:41;3.67;;;1.80;;
16963;SDS011;8598;50.508;10.436;2023-05-19T13:22:07;3.87;;;2.03;;
16963;SDS011;8598;50.508;10.436;2023-05-19T13:24:35;4.23;;;2.13;;
16963;SDS011;8598;50.508;10.436;2023-05-19T13:27:02;2.33;;;2.07;;
16963;SDS011;8598;50.508;10.436;2023-05-19T13:29:29;3.67;;;1.70;;
16963;SDS011;8598;50.508;10.436;2023-05-19T13:31:56;2.37;;;2.07;;
16963;SDS011;8598;50.508;10.436;2023-05-19T13:34:22;5.73;;;2.77;;
16963;SDS011;8598;50.508;10.436;2023-05-19T13:36:49;5.60;;;2.40;;
16963;SDS011;8598;50.508;10.436;2023-05-19T13:39:16;3.63;;;3.03;;
16963;SDS011;8598;50.508;10.436;2023-05-19T13:41:44;2.63;;;2.13;;
16963;SDS011;8598;50.508;10.436;2023-05-19T13:44:11;3.30;;;2.20;;
16963;SDS011;8598;50.508;10.436;2023-05-19T13:46:37;2.27;;;2.00;;
16963;SDS011;8598;50.508;10.436;2023-05-19T13:49:04;3.83;;;2.23;;
16963;SDS011;8598;50.508;10.436;2023-05-19T13:51:30;3.37;;;2.57;;
16963;SDS011;8598;50.508;10.436;2023-05-19T13:53:57;2.07;;;1.50;;
16963;SDS011;8598;50.508;10.436;2023-05-19T13:56:24;5.37;;;1.93;;
16963;SDS011;8598;50.508;10.436;2023-05-19T13:58:52;2.70;;;1.80;;
16963;SDS011;8598;50.508;10.436;2023-05-19T14:01:19;2.30;;;2.10;;
16963;SDS011;8598;50.508;10.436;2023-05-19T14:03:45;2.67;;;1.87;;
16963;SDS011;8598;50.508;10.436;2023-05-19T14:06:12;2.40;;;2.17;;
16963;SDS011;8598;50.508;10.436;2023-05-19T14:08:39;2.77;;;1.53;;
16963;SDS011;8598;50.508;10.436;2023-05-19T14:11:06;3.40;;;2.00;;
16963;SDS011;8598;50.508;10.436;2023-05-19T14:13:32;2.20;;;1.80;;
16963;SDS011;8598;50.508;10.436;2023-05-19T14:16:00;1.73;;;1.63;;
16963;SDS011;8598;50.508;10.436;2023-05-19T14:18:27;2.70;;;1.97;;
16963;SDS011;8598;50.508;10.436;2023-05-19T14:20:53;4.40;;;2.20;;
16963;SDS011;8598;50.508;10.436;2023-05-19T14:23:20;3.57;;;2.00;;
16963;SDS011;8598;50.508;10.436;2023-05-19T14:25:47;4.00;;;1.90;;
16963;SDS011;8598;50.508;10.436;2023-05-19T14:28:14;2.37;;;2.13;;
16963;SDS011;8598;50.508;10.436;2023-05-19T14:30:41;2.40;;;2.20;;
16963;SDS011;8598;50.508;10.436;2023-05-19T14:33:09;2.60;;;2.40;;
16963;SDS011;8598;50.508;10.436;2023-05-19T14:35:35;3.30;;;2.57;;
16963;SDS011;8598;50.508;10.436;2023-05-19T14:38:02;5.47;;;2.43;;
16963;SDS011;8598;50.508;10.436;2023-05-19T14:40:29;2.87;;;1.93;;
16963;SDS011;8598;50.508;10.436;2023-05-19T14:42:55;3.77;;;2.60;;
16963;SDS011;8598;50.508;10.436;2023-05-19T14:45:22;2.87;;;1.70;;
16963;SDS011;8598;50.508;10.436;2023-05-19T14:47:48;2.93;;;2.50;;
16963;SDS011;8598;50.508;10.436;2023-05-19T14:50:16;4.53;;;2.10;;
16963;SDS011;8598;50.508;10.436;2023-05-19T14:52:43;4.17;;;3.00;;